Aviation Digital Data Service (ADDS)

Output produced by METARs form (0235 UTC 22 February 2019)
found at http://www.aviationweather.gov/metar/data/
 
METAR text: KCVG 220152Z 00000KT 10SM OVC140 05/M02 A3027 RMK AO2 SLP253 T00501022
Conditions at: KCVG (COVINGTON , KY, US) observed 0152 UTC 22 February 2019
Temperature: 5.0°C (41°F)
Dewpoint: -2.2°C (28°F) [RH = 60%]
Pressure (altimeter): 30.27 inches Hg (1025.1 mb)
[Sea-level pressure: 1025.3 mb]
Winds: calm
Visibility: 10 or more miles (16+ km)
Ceiling: 14000 feet AGL
Clouds: overcast cloud deck at 14000 feet AGL
Weather: no significant weather observed at this time

METAR text: KCVG 220052Z 34006KT 10SM OVC160 05/M02 A3025 RMK AO2 SLP247 T00501022
Conditions at: KCVG (COVINGTON , KY, US) observed 0052 UTC 22 February 2019
Temperature: 5.0°C (41°F)
Dewpoint: -2.2°C (28°F) [RH = 60%]
Pressure (altimeter): 30.25 inches Hg (1024.5 mb)
[Sea-level pressure: 1024.7 mb]
Winds: from the NNW (340 degrees) at 7 MPH (6 knots; 3.1 m/s)
Visibility: 10 or more miles (16+ km)
Ceiling: 16000 feet AGL
Clouds: overcast cloud deck at 16000 feet AGL
Weather: no significant weather observed at this time

METAR text: KCVG 212352Z 32007KT 10SM OVC150 06/M03 A3023 RMK AO2 SLP242 VIRGA ALQDS T00561028 10094 20056 53010
Conditions at: KCVG (COVINGTON , KY, US) observed 2352 UTC 21 February 2019
Temperature: 5.6°C (42°F)
Dewpoint: -2.8°C (27°F) [RH = 55%]
Pressure (altimeter): 30.23 inches Hg (1023.8 mb)
[Sea-level pressure: 1024.2 mb]
Winds: from the NW (320 degrees) at 8 MPH (7 knots; 3.6 m/s)
Visibility: 10 or more miles (16+ km)
Ceiling: 15000 feet AGL
Clouds: overcast cloud deck at 15000 feet AGL
Weather: no significant weather observed at this time

METAR text: KCVG 212252Z 33006KT 10SM OVC140 07/M03 A3022 RMK AO2 SLP236 VIRGA OHD-ALQDS T00671033
Conditions at: KCVG (COVINGTON , KY, US) observed 2252 UTC 21 February 2019
Temperature: 6.7°C (44°F)
Dewpoint: -3.3°C (26°F) [RH = 49%]
Pressure (altimeter): 30.22 inches Hg (1023.5 mb)
[Sea-level pressure: 1023.6 mb]
Winds: from the NNW (330 degrees) at 7 MPH (6 knots; 3.1 m/s)
Visibility: 10 or more miles (16+ km)
Ceiling: 14000 feet AGL
Clouds: overcast cloud deck at 14000 feet AGL
Weather: no significant weather observed at this time

METAR text: KCVG 212152Z 31005KT 10SM BKN160 OVC250 08/M05 A3021 RMK AO2 SLP233 VIRGA OHD-ALQDS T00781050
Conditions at: KCVG (COVINGTON , KY, US) observed 2152 UTC 21 February 2019
Temperature: 7.8°C (46°F)
Dewpoint: -5.0°C (23°F) [RH = 40%]
Pressure (altimeter): 30.21 inches Hg (1023.1 mb)
[Sea-level pressure: 1023.3 mb]
Winds: from the NW (310 degrees) at 6 MPH (5 knots; 2.6 m/s)
Visibility: 10 or more miles (16+ km)
Ceiling: 16000 feet AGL
Clouds: broken clouds at 16000 feet AGL
overcast cloud deck at 25000 feet AGL
Weather: no significant weather observed at this time

METAR text: KCVG 212052Z 32008KT 10SM BKN170 OVC250 08/M03 A3020 RMK AO2 SLP230 VIRGA OHD-ALQDS T00831033 55001
Conditions at: KCVG (COVINGTON , KY, US) observed 2052 UTC 21 February 2019
Temperature: 8.3°C (47°F)
Dewpoint: -3.3°C (26°F) [RH = 44%]
Pressure (altimeter): 30.20 inches Hg (1022.8 mb)
[Sea-level pressure: 1023.0 mb]
Winds: from the NW (320 degrees) at 9 MPH (8 knots; 4.1 m/s)
Visibility: 10 or more miles (16+ km)
Ceiling: 17000 feet AGL
Clouds: broken clouds at 17000 feet AGL
overcast cloud deck at 25000 feet AGL
Weather: no significant weather observed at this time

METAR text: KCVG 211952Z 27007KT 10SM SCT180 SCT210 OVC250 09/M02 A3020 RMK AO2 SLP227 T00891017
Conditions at: KCVG (COVINGTON , KY, US) observed 1952 UTC 21 February 2019
Temperature: 8.9°C (48°F)
Dewpoint: -1.7°C (29°F) [RH = 47%]
Pressure (altimeter): 30.20 inches Hg (1022.8 mb)
[Sea-level pressure: 1022.7 mb]
Winds: from the W (270 degrees) at 8 MPH (7 knots; 3.6 m/s)
Visibility: 10 or more miles (16+ km)
Ceiling: 25000 feet AGL
Clouds: scattered clouds at 18000 feet AGL
scattered clouds at 21000 feet AGL
overcast cloud deck at 25000 feet AGL
Weather: no significant weather observed at this time

METAR text: KCVG 211852Z 31006KT 10SM BKN210 BKN250 09/M02 A3019 RMK AO2 SLP223 T00891017
Conditions at: KCVG (COVINGTON , KY, US) observed 1852 UTC 21 February 2019
Temperature: 8.9°C (48°F)
Dewpoint: -1.7°C (29°F) [RH = 47%]
Pressure (altimeter): 30.19 inches Hg (1022.4 mb)
[Sea-level pressure: 1022.3 mb]
Winds: from the NW (310 degrees) at 7 MPH (6 knots; 3.1 m/s)
Visibility: 10 or more miles (16+ km)
Ceiling: 21000 feet AGL
Clouds: broken clouds at 21000 feet AGL
broken clouds at 25000 feet AGL
Weather: no significant weather observed at this time

METAR text: KCVG 211752Z 30005KT 10SM FEW180 BKN250 07/M03 A3021 RMK AO2 SLP230 T00721028 10072 21022 58001
Conditions at: KCVG (COVINGTON , KY, US) observed 1752 UTC 21 February 2019
Temperature: 7.2°C (45°F)
Dewpoint: -2.8°C (27°F) [RH = 49%]
Pressure (altimeter): 30.21 inches Hg (1023.1 mb)
[Sea-level pressure: 1023.0 mb]
Winds: from the WNW (300 degrees) at 6 MPH (5 knots; 2.6 m/s)
Visibility: 10 or more miles (16+ km)
Ceiling: 25000 feet AGL
Clouds: few clouds at 18000 feet AGL
broken clouds at 25000 feet AGL
Weather: no significant weather observed at this time

METAR text: KCVG 211652Z 00000KT 10SM SCT250 07/M01 A3022 RMK AO2 SLP234 T00671011
Conditions at: KCVG (COVINGTON , KY, US) observed 1652 UTC 21 February 2019
Temperature: 6.7°C (44°F)
Dewpoint: -1.1°C (30°F) [RH = 57%]
Pressure (altimeter): 30.22 inches Hg (1023.5 mb)
[Sea-level pressure: 1023.4 mb]
Winds: calm
Visibility: 10 or more miles (16+ km)
Ceiling: at least 12,000 feet AGL
Clouds: scattered clouds at 25000 feet AGL
Weather: no significant weather observed at this time

METAR text: KCVG 211552Z 27006KT 10SM FEW240 SCT300 05/M02 A3022 RMK AO2 SLP235 T00501017
Conditions at: KCVG (COVINGTON , KY, US) observed 1552 UTC 21 February 2019
Temperature: 5.0°C (41°F)
Dewpoint: -1.7°C (29°F) [RH = 62%]
Pressure (altimeter): 30.22 inches Hg (1023.5 mb)
[Sea-level pressure: 1023.5 mb]
Winds: from the W (270 degrees) at 7 MPH (6 knots; 3.1 m/s)
Visibility: 10 or more miles (16+ km)
Ceiling: at least 12,000 feet AGL
Clouds: few clouds at 24000 feet AGL
scattered clouds at 30000 feet AGL
Weather: no significant weather observed at this time

METAR text: KCVG 211452Z 29007KT 10SM FEW017 SCT230 BKN300 03/M01 A3021 RMK AO2 SLP231 T00331006 51026
Conditions at: KCVG (COVINGTON , KY, US) observed 1452 UTC 21 February 2019
Temperature: 3.3°C (38°F)
Dewpoint: -0.6°C (31°F) [RH = 76%]
Pressure (altimeter): 30.21 inches Hg (1023.1 mb)
[Sea-level pressure: 1023.1 mb]
Winds: from the WNW (290 degrees) at 8 MPH (7 knots; 3.6 m/s)
Visibility: 10 or more miles (16+ km)
Ceiling: 30000 feet AGL
Clouds: few clouds at 1700 feet AGL
scattered clouds at 23000 feet AGL
broken clouds at 30000 feet AGL
Weather: no significant weather observed at this time

METAR text: KCVG 211352Z 29007KT 10SM FEW200 BKN300 02/M01 A3019 RMK AO2 SLP224 T00171011
Conditions at: KCVG (COVINGTON , KY, US) observed 1352 UTC 21 February 2019
Temperature: 1.7°C (35°F)
Dewpoint: -1.1°C (30°F) [RH = 82%]
Pressure (altimeter): 30.19 inches Hg (1022.4 mb)
[Sea-level pressure: 1022.4 mb]
Winds: from the WNW (290 degrees) at 8 MPH (7 knots; 3.6 m/s)
Visibility: 10 or more miles (16+ km)
Ceiling: 30000 feet AGL
Clouds: few clouds at 20000 feet AGL
broken clouds at 30000 feet AGL
Weather: no significant weather observed at this time

METAR text: KCVG 211252Z 24003KT 7SM FEW220 BKN300 00/M02 A3017 RMK AO2 SLP218 T00001017
Conditions at: KCVG (COVINGTON , KY, US) observed 1252 UTC 21 February 2019
Temperature: 0.0°C (32°F)
Dewpoint: -1.7°C (29°F) [RH = 88%]
Pressure (altimeter): 30.17 inches Hg (1021.8 mb)
[Sea-level pressure: 1021.8 mb]
Winds: from the WSW (240 degrees) at 3 MPH (3 knots; 1.5 m/s)
Visibility: 7 miles (11 km)
Ceiling: 30000 feet AGL
Clouds: few clouds at 22000 feet AGL
broken clouds at 30000 feet AGL
Weather: no significant weather observed at this time

METAR text: KCVG 211152Z 26005KT 10SM FEW035 SCT250 01/M02 A3013 RMK AO2 SLP204 70044 T00061017 10056 20006 53019
Conditions at: KCVG (COVINGTON , KY, US) observed 1152 UTC 21 February 2019
Temperature: 0.6°C (33°F)
Dewpoint: -1.7°C (29°F) [RH = 85%]
Pressure (altimeter): 30.13 inches Hg (1020.4 mb)
[Sea-level pressure: 1020.4 mb]
Winds: from the W (260 degrees) at 6 MPH (5 knots; 2.6 m/s)
Visibility: 10 or more miles (16+ km)
Ceiling: at least 12,000 feet AGL
Clouds: few clouds at 3500 feet AGL
scattered clouds at 25000 feet AGL
Weather: no significant weather observed at this time

METAR text: KCVG 211052Z 27006KT 10SM FEW020 SCT250 02/M01 A3010 RMK AO2 SLP193 T00171011
Conditions at: KCVG (COVINGTON , KY, US) observed 1052 UTC 21 February 2019
Temperature: 1.7°C (35°F)
Dewpoint: -1.1°C (30°F) [RH = 82%]
Pressure (altimeter): 30.10 inches Hg (1019.4 mb)
[Sea-level pressure: 1019.3 mb]
Winds: from the W (270 degrees) at 7 MPH (6 knots; 3.1 m/s)
Visibility: 10 or more miles (16+ km)
Ceiling: at least 12,000 feet AGL
Clouds: few clouds at 2000 feet AGL
scattered clouds at 25000 feet AGL
Weather: no significant weather observed at this time

METAR text: KCVG 210952Z 28004KT 10SM FEW021 BKN250 01/M01 A3009 RMK AO2 SLP191 T00111011
Conditions at: KCVG (COVINGTON , KY, US) observed 0952 UTC 21 February 2019
Temperature: 1.1°C (34°F)
Dewpoint: -1.1°C (30°F) [RH = 85%]
Pressure (altimeter): 30.09 inches Hg (1019.0 mb)
[Sea-level pressure: 1019.1 mb]
Winds: from the W (280 degrees) at 5 MPH (4 knots; 2.1 m/s)
Visibility: 10 or more miles (16+ km)
Ceiling: 25000 feet AGL
Clouds: few clouds at 2100 feet AGL
broken clouds at 25000 feet AGL
Weather: no significant weather observed at this time

METAR text: KCVG 210852Z 27005KT 10SM FEW025 BKN250 02/M01 A3007 RMK AO2 SLP184 T00221006 51021
Conditions at: KCVG (COVINGTON , KY, US) observed 0852 UTC 21 February 2019
Temperature: 2.2°C (36°F)
Dewpoint: -0.6°C (31°F) [RH = 82%]
Pressure (altimeter): 30.07 inches Hg (1018.4 mb)
[Sea-level pressure: 1018.4 mb]
Winds: from the W (270 degrees) at 6 MPH (5 knots; 2.6 m/s)
Visibility: 10 or more miles (16+ km)
Ceiling: 25000 feet AGL
Clouds: few clouds at 2500 feet AGL
broken clouds at 25000 feet AGL
Weather: no significant weather observed at this time

METAR text: KCVG 210752Z 27007KT 10SM FEW026 SCT250 03/M01 A3006 RMK AO2 SLP180 T00281006
Conditions at: KCVG (COVINGTON , KY, US) observed 0752 UTC 21 February 2019
Temperature: 2.8°C (37°F)
Dewpoint: -0.6°C (31°F) [RH = 78%]
Pressure (altimeter): 30.06 inches Hg (1018.0 mb)
[Sea-level pressure: 1018.0 mb]
Winds: from the W (270 degrees) at 8 MPH (7 knots; 3.6 m/s)
Visibility: 10 or more miles (16+ km)
Ceiling: at least 12,000 feet AGL
Clouds: few clouds at 2600 feet AGL
scattered clouds at 25000 feet AGL
Weather: no significant weather observed at this time

METAR text: KCVG 210722Z 28008KT 10SM SCT027 BKN250 03/00 A3005 RMK AO2 T00330000
Conditions at: KCVG (COVINGTON , KY, US) observed 0722 UTC 21 February 2019
Temperature: 3.3°C (38°F)
Dewpoint: 0.0°C (32°F) [RH = 79%]
Pressure (altimeter): 30.05 inches Hg (1017.7 mb)
Winds: from the W (280 degrees) at 9 MPH (8 knots; 4.1 m/s)
Visibility: 10 or more miles (16+ km)
Ceiling: 25000 feet AGL
Clouds: scattered clouds at 2700 feet AGL
broken clouds at 25000 feet AGL
Weather: no significant weather observed at this time

METAR text: KCVG 210652Z 27011KT 10SM FEW020 BKN027 04/01 A3003 RMK AO2 SLP172 T00440006
Conditions at: KCVG (COVINGTON , KY, US) observed 0652 UTC 21 February 2019
Temperature: 4.4°C (40°F)
Dewpoint: 0.6°C (33°F) [RH = 76%]
Pressure (altimeter): 30.03 inches Hg (1017.0 mb)
[Sea-level pressure: 1017.2 mb]
Winds: from the W (270 degrees) at 13 MPH (11 knots; 5.7 m/s)
Visibility: 10 or more miles (16+ km)
Ceiling: 2700 feet AGL
Clouds: few clouds at 2000 feet AGL
broken clouds at 2700 feet AGL
Weather: no significant weather observed at this time

METAR text: KCVG 210552Z 25006KT 10SM OVC026 05/02 A3001 RMK AO2 SLP162 60001 T00500017 10106 20050 51033
Conditions at: KCVG (COVINGTON , KY, US) observed 0552 UTC 21 February 2019
Temperature: 5.0°C (41°F)
Dewpoint: 1.7°C (35°F) [RH = 79%]
Pressure (altimeter): 30.01 inches Hg (1016.3 mb)
[Sea-level pressure: 1016.2 mb]
Winds: from the WSW (250 degrees) at 7 MPH (6 knots; 3.1 m/s)
Visibility: 10 or more miles (16+ km)
Ceiling: 2600 feet AGL
Clouds: overcast cloud deck at 2600 feet AGL
Weather: no significant weather observed at this time

METAR text: KCVG 210452Z 27015KT 10SM OVC024 06/02 A2998 RMK AO2 SLP153 T00610017 401060000
Conditions at: KCVG (COVINGTON , KY, US) observed 0452 UTC 21 February 2019
Temperature: 6.1°C (43°F)
Dewpoint: 1.7°C (35°F) [RH = 73%]
Pressure (altimeter): 29.98 inches Hg (1015.3 mb)
[Sea-level pressure: 1015.3 mb]
Winds: from the W (270 degrees) at 17 MPH (15 knots; 7.7 m/s)
Visibility: 10 or more miles (16+ km)
Ceiling: 2400 feet AGL
Clouds: overcast cloud deck at 2400 feet AGL
Weather: no significant weather observed at this time

METAR text: KCVG 210352Z 26009G17KT 10SM OVC022 07/03 A2995 RMK AO2 SLP142 BINOVC T00720033
Conditions at: KCVG (COVINGTON , KY, US) observed 0352 UTC 21 February 2019
Temperature: 7.2°C (45°F)
Dewpoint: 3.3°C (38°F) [RH = 76%]
Pressure (altimeter): 29.95 inches Hg (1014.3 mb)
[Sea-level pressure: 1014.2 mb]
Winds: from the W (260 degrees) at 10 MPH (9 knots; 4.6 m/s)
gusting to 20 MPH (17 knots; 8.7 m/s)
Visibility: 10 or more miles (16+ km)
Ceiling: 2200 feet AGL
Clouds: overcast cloud deck at 2200 feet AGL
Weather: no significant weather observed at this time

METAR text: KCVG 210252Z 26010KT 10SM SCT013 OVC019 08/05 A2991 RMK AO2 PK WND 27026/0211 SLP128 BINOVC OHD 60001 T00830050 53030
Conditions at: KCVG (COVINGTON , KY, US) observed 0252 UTC 21 February 2019
Temperature: 8.3°C (47°F)
Dewpoint: 5.0°C (41°F) [RH = 80%]
Pressure (altimeter): 29.91 inches Hg (1013.0 mb)
[Sea-level pressure: 1012.8 mb]
Winds: from the W (260 degrees) at 12 MPH (10 knots; 5.1 m/s)
Visibility: 10 or more miles (16+ km)
Ceiling: 1900 feet AGL
Clouds: scattered clouds at 1300 feet AGL
overcast cloud deck at 1900 feet AGL
Weather: no significant weather observed at this time

METAR text: KCVG 210245Z 27011KT 10SM SCT014 OVC019 08/05 A2990 RMK AO2 PK WND 27026/0211 T00830050
Conditions at: KCVG (COVINGTON , KY, US) observed 0245 UTC 21 February 2019
Temperature: 8.3°C (47°F)
Dewpoint: 5.0°C (41°F) [RH = 80%]
Pressure (altimeter): 29.90 inches Hg (1012.6 mb)
Winds: from the W (270 degrees) at 13 MPH (11 knots; 5.7 m/s)
Visibility: 10 or more miles (16+ km)
Ceiling: 1900 feet AGL
Clouds: scattered clouds at 1400 feet AGL
overcast cloud deck at 1900 feet AGL
Weather: no significant weather observed at this time

METAR text: KCVG 210152Z 25011G17KT 10SM FEW009 OVC013 09/08 A2986 RMK AO2 SLP111 T00940078
Conditions at: KCVG (COVINGTON , KY, US) observed 0152 UTC 21 February 2019
Temperature: 9.4°C (49°F)
Dewpoint: 7.8°C (46°F) [RH = 90%]
Pressure (altimeter): 29.86 inches Hg (1011.3 mb)
[Sea-level pressure: 1011.1 mb]
Winds: from the WSW (250 degrees) at 13 MPH (11 knots; 5.7 m/s)
gusting to 20 MPH (17 knots; 8.7 m/s)
Visibility: 10 or more miles (16+ km)
Ceiling: 1300 feet AGL
Clouds: few clouds at 900 feet AGL
overcast cloud deck at 1300 feet AGL
Weather: no significant weather observed at this time

METAR text: KCVG 210147Z 26013G17KT 10SM SCT009 OVC013 09/08 A2986 RMK AO2
Conditions at: KCVG (COVINGTON , KY, US) observed 0147 UTC 21 February 2019
Temperature: 9.0°C (48°F)
Dewpoint: 8.0°C (46°F) [RH = 93%]
Pressure (altimeter): 29.86 inches Hg (1011.3 mb)
Winds: from the W (260 degrees) at 15 MPH (13 knots; 6.7 m/s)
gusting to 20 MPH (17 knots; 8.7 m/s)
Visibility: 10 or more miles (16+ km)
Ceiling: 1300 feet AGL
Clouds: scattered clouds at 900 feet AGL
overcast cloud deck at 1300 feet AGL
Weather: no significant weather observed at this time

METAR text: KCVG 210052Z 25011G17KT 7SM BKN006 OVC011 10/09 A2984 RMK AO2 DZE43 SLP106 P0001 T01000089
Conditions at: KCVG (COVINGTON , KY, US) observed 0052 UTC 21 February 2019
Temperature: 10.0°C (50°F)
Dewpoint: 8.9°C (48°F) [RH = 93%]
Pressure (altimeter): 29.84 inches Hg (1010.6 mb)
[Sea-level pressure: 1010.6 mb]
Winds: from the WSW (250 degrees) at 13 MPH (11 knots; 5.7 m/s)
gusting to 20 MPH (17 knots; 8.7 m/s)
Visibility: 7 miles (11 km)
Ceiling: 600 feet AGL
Clouds: broken clouds at 600 feet AGL
overcast cloud deck at 1100 feet AGL
Weather: no significant weather observed at this time

METAR text: KCVG 210043Z 24009G17KT 6SM BR OVC006 10/09 A2984 RMK AO2 DZE43 P0001 T01000089
Conditions at: KCVG (COVINGTON , KY, US) observed 0043 UTC 21 February 2019
Temperature: 10.0°C (50°F)
Dewpoint: 8.9°C (48°F) [RH = 93%]
Pressure (altimeter): 29.84 inches Hg (1010.6 mb)
Winds: from the WSW (240 degrees) at 10 MPH (9 knots; 4.6 m/s)
gusting to 20 MPH (17 knots; 8.7 m/s)
Visibility: 6 miles (10 km)
Ceiling: 600 feet AGL
Clouds: overcast cloud deck at 600 feet AGL
Weather: BR  (mist)

METAR text: KCVG 202352Z 22009KT 1 1/2SM -DZ BR OVC005 10/09 A2981 RMK AO2 SFC VIS 2 RAE21DZB21 SLP097 P0004 60039 T01000089 10100 20067 53016
Conditions at: KCVG (COVINGTON , KY, US) observed 2352 UTC 20 February 2019
Temperature: 10.0°C (50°F)
Dewpoint: 8.9°C (48°F) [RH = 93%]
Pressure (altimeter): 29.81 inches Hg (1009.6 mb)
[Sea-level pressure: 1009.7 mb]
Winds: from the SW (220 degrees) at 10 MPH (9 knots; 4.6 m/s)
Visibility: 1.50 miles (2.41 km)
Ceiling: 500 feet AGL
Clouds: overcast cloud deck at 500 feet AGL
Weather: -DZ BR  (light drizzle, mist)

METAR text: KCVG 202323Z 21008KT 2SM -DZ BR OVC005 09/08 A2979 RMK AO2 SFC VIS 6 RAE21DZB21 P0004 T00940083
Conditions at: KCVG (COVINGTON , KY, US) observed 2323 UTC 20 February 2019
Temperature: 9.4°C (49°F)
Dewpoint: 8.3°C (47°F) [RH = 93%]
Pressure (altimeter): 29.79 inches Hg (1008.9 mb)
Winds: from the SSW (210 degrees) at 9 MPH (8 knots; 4.1 m/s)
Visibility: 2.00 miles (3.22 km)
Ceiling: 500 feet AGL
Clouds: overcast cloud deck at 500 feet AGL
Weather: -DZ BR  (light drizzle, mist)

METAR text: KCVG 202252Z 21005KT 1SM R18C/P6000FT -RA BR OVC005 09/08 A2979 RMK AO2 SFC VIS 2 SLP089 CIG 003V008 P0005 T00890083
Conditions at: KCVG (COVINGTON , KY, US) observed 2252 UTC 20 February 2019
Temperature: 8.9°C (48°F)
Dewpoint: 8.3°C (47°F) [RH = 96%]
Pressure (altimeter): 29.79 inches Hg (1008.9 mb)
[Sea-level pressure: 1008.9 mb]
Winds: from the SSW (210 degrees) at 6 MPH (5 knots; 2.6 m/s)
Visibility: 1.00 miles (1.61 km)
Ceiling: 500 feet AGL
Clouds: overcast cloud deck at 500 feet AGL
Weather: -RA BR  (light rain, mist)

METAR text: KCVG 202233Z 20007KT 1SM R18C/P6000FT -RA BR BKN006 OVC012 09/08 A2978 RMK AO2 SFC VIS 2 CIG 004V009 P0003 T00890078
Conditions at: KCVG (COVINGTON , KY, US) observed 2233 UTC 20 February 2019
Temperature: 8.9°C (48°F)
Dewpoint: 7.8°C (46°F) [RH = 93%]
Pressure (altimeter): 29.78 inches Hg (1008.5 mb)
Winds: from the SSW (200 degrees) at 8 MPH (7 knots; 3.6 m/s)
Visibility: 1.00 miles (1.61 km)
Ceiling: 600 feet AGL
Clouds: broken clouds at 600 feet AGL
overcast cloud deck at 1200 feet AGL
Weather: -RA BR  (light rain, mist)

METAR text: KCVG 202224Z 20006KT 2SM -RA BR BKN006 OVC014 09/08 A2978 RMK AO2 SFC VIS 2 1/2 CIG 004V009 P0002 T00890078
Conditions at: KCVG (COVINGTON , KY, US) observed 2224 UTC 20 February 2019
Temperature: 8.9°C (48°F)
Dewpoint: 7.8°C (46°F) [RH = 93%]
Pressure (altimeter): 29.78 inches Hg (1008.5 mb)
Winds: from the SSW (200 degrees) at 7 MPH (6 knots; 3.1 m/s)
Visibility: 2.00 miles (3.22 km)
Ceiling: 600 feet AGL
Clouds: broken clouds at 600 feet AGL
overcast cloud deck at 1400 feet AGL
Weather: -RA BR  (light rain, mist)

METAR text: KCVG 202208Z 20005KT 1 3/4SM R18C/6000VP6000FT -RA BR BKN006 OVC014 09/08 A2979 RMK AO2 TWR VIS 2 CIG 004V009 P0001 T00890078
Conditions at: KCVG (COVINGTON , KY, US) observed 2208 UTC 20 February 2019
Temperature: 8.9°C (48°F)
Dewpoint: 7.8°C (46°F) [RH = 93%]
Pressure (altimeter): 29.79 inches Hg (1008.9 mb)
Winds: from the SSW (200 degrees) at 6 MPH (5 knots; 2.6 m/s)
Visibility: 1.75 miles (2.82 km)
Ceiling: 600 feet AGL
Clouds: broken clouds at 600 feet AGL
overcast cloud deck at 1400 feet AGL
Weather: -RA BR  (light rain, mist)

METAR text: KCVG 202152Z 18007KT 2SM -RA BR BKN005 BKN014 OVC024 09/08 A2977 RMK AO2 SFC VIS 4 SLP083 P0017 T00890078
Conditions at: KCVG (COVINGTON , KY, US) observed 2152 UTC 20 February 2019
Temperature: 8.9°C (48°F)
Dewpoint: 7.8°C (46°F) [RH = 93%]
Pressure (altimeter): 29.77 inches Hg (1008.2 mb)
[Sea-level pressure: 1008.3 mb]
Winds: from the S (180 degrees) at 8 MPH (7 knots; 3.6 m/s)
Visibility: 2.00 miles (3.22 km)
Ceiling: 500 feet AGL
Clouds: broken clouds at 500 feet AGL
broken clouds at 1400 feet AGL
overcast cloud deck at 2400 feet AGL
Weather: -RA BR  (light rain, mist)

METAR text: KCVG 202111Z 18006KT 2SM R18C/4500VP6000FT RA BR BKN005 OVC009 08/08 A2978 RMK AO2 P0006 T00830078
Conditions at: KCVG (COVINGTON , KY, US) observed 2111 UTC 20 February 2019
Temperature: 8.3°C (47°F)
Dewpoint: 7.8°C (46°F) [RH = 97%]
Pressure (altimeter): 29.78 inches Hg (1008.5 mb)
Winds: from the S (180 degrees) at 7 MPH (6 knots; 3.1 m/s)
Visibility: 2.00 miles (3.22 km)
Ceiling: 500 feet AGL
Clouds: broken clouds at 500 feet AGL
overcast cloud deck at 900 feet AGL
Weather: RA BR  (moderate rain, mist)

METAR text: KCVG 202101Z 17006KT 1 1/4SM R18C/6000VP6000FT RA BR BKN005 OVC010 08/07 A2977 RMK AO2 TWR VIS 2 P0001 T00830072
Conditions at: KCVG (COVINGTON , KY, US) observed 2101 UTC 20 February 2019
Temperature: 8.3°C (47°F)
Dewpoint: 7.2°C (45°F) [RH = 93%]
Pressure (altimeter): 29.77 inches Hg (1008.2 mb)
Winds: from the S (170 degrees) at 7 MPH (6 knots; 3.1 m/s)
Visibility: 1.25 miles (2.01 km)
Ceiling: 500 feet AGL
Clouds: broken clouds at 500 feet AGL
overcast cloud deck at 1000 feet AGL
Weather: RA BR  (moderate rain, mist)

METAR text: KCVG 202052Z 17008KT 2SM -RA BR BKN006 OVC010 08/07 A2977 RMK AO2 RAE30B51DZB46E51 SLP081 P0003 60013 T00830072 56035
Conditions at: KCVG (COVINGTON , KY, US) observed 2052 UTC 20 February 2019
Temperature: 8.3°C (47°F)
Dewpoint: 7.2°C (45°F) [RH = 93%]
Pressure (altimeter): 29.77 inches Hg (1008.2 mb)
[Sea-level pressure: 1008.1 mb]
Winds: from the S (170 degrees) at 9 MPH (8 knots; 4.1 m/s)
Visibility: 2.00 miles (3.22 km)
Ceiling: 600 feet AGL
Clouds: broken clouds at 600 feet AGL
overcast cloud deck at 1000 feet AGL
Weather: -RA BR  (light rain, mist)

METAR text: KCVG 202047Z 16008KT 2SM -DZ BR BKN006 OVC011 08/07 A2976 RMK AO2 SFC VIS 2 1/2 RAE30DZB46 P0003
Conditions at: KCVG (COVINGTON , KY, US) observed 2047 UTC 20 February 2019
Temperature: 8.0°C (46°F)
Dewpoint: 7.0°C (45°F) [RH = 93%]
Pressure (altimeter): 29.76 inches Hg (1007.9 mb)
Winds: from the SSE (160 degrees) at 9 MPH (8 knots; 4.1 m/s)
Visibility: 2.00 miles (3.22 km)
Ceiling: 600 feet AGL
Clouds: broken clouds at 600 feet AGL
overcast cloud deck at 1100 feet AGL
Weather: -DZ BR  (light drizzle, mist)

METAR text: KCVG 201952Z 15010KT 8SM -RA BKN006 BKN013 OVC021 08/06 A2979 RMK AO2 RAE14B23 SLP090 BKN006 V SCT P0010 T00780061
Conditions at: KCVG (COVINGTON , KY, US) observed 1952 UTC 20 February 2019
Temperature: 7.8°C (46°F)
Dewpoint: 6.1°C (43°F) [RH = 89%]
Pressure (altimeter): 29.79 inches Hg (1008.9 mb)
[Sea-level pressure: 1009.0 mb]
Winds: from the SSE (150 degrees) at 12 MPH (10 knots; 5.1 m/s)
Visibility: 8 miles (13 km)
Ceiling: 600 feet AGL
Clouds: broken clouds at 600 feet AGL
broken clouds at 1300 feet AGL
overcast cloud deck at 2100 feet AGL
Weather: -RA  (light rain)

METAR text: KCVG 201942Z 15011KT 4SM R18C/4500VP6000FT RA BR BKN006 OVC017 08/06 A2980 RMK AO2 RAE14B23 P0008 T00780061
Conditions at: KCVG (COVINGTON , KY, US) observed 1942 UTC 20 February 2019
Temperature: 7.8°C (46°F)
Dewpoint: 6.1°C (43°F) [RH = 89%]
Pressure (altimeter): 29.80 inches Hg (1009.2 mb)
Winds: from the SSE (150 degrees) at 13 MPH (11 knots; 5.7 m/s)
Visibility: 4 miles ( 6 km)
Ceiling: 600 feet AGL
Clouds: broken clouds at 600 feet AGL
overcast cloud deck at 1700 feet AGL
Weather: RA BR  (moderate rain, mist)

METAR text: KCVG 201932Z 19007KT 2 1/2SM R18C/6000VP6000FT +RA BR OVC006 07/06 A2982 RMK AO2 RAE14B23 P0001 T00720061
Conditions at: KCVG (COVINGTON , KY, US) observed 1932 UTC 20 February 2019
Temperature: 7.2°C (45°F)
Dewpoint: 6.1°C (43°F) [RH = 93%]
Pressure (altimeter): 29.82 inches Hg (1009.9 mb)
Winds: from the S (190 degrees) at 8 MPH (7 knots; 3.6 m/s)
Visibility: 2.50 miles (4.02 km)
Ceiling: 600 feet AGL
Clouds: overcast cloud deck at 600 feet AGL
Weather: +RA BR  (heavy rain, mist)

METAR text: KCVG 201915Z 15013KT 7SM OVC006 07/06 A2978 RMK AO2 RAE14 P0001 T00720061
Conditions at: KCVG (COVINGTON , KY, US) observed 1915 UTC 20 February 2019
Temperature: 7.2°C (45°F)
Dewpoint: 6.1°C (43°F) [RH = 93%]
Pressure (altimeter): 29.78 inches Hg (1008.5 mb)
Winds: from the SSE (150 degrees) at 15 MPH (13 knots; 6.7 m/s)
Visibility: 7 miles (11 km)
Ceiling: 600 feet AGL
Clouds: overcast cloud deck at 600 feet AGL
Weather: no significant weather observed at this time

METAR text: KCVG 201852Z 16012KT 2SM -RA BR OVC006 07/06 A2981 RMK AO2 SFC VIS 2 1/2 SLP097 RAE11B38 P0000 T00720056
Conditions at: KCVG (COVINGTON , KY, US) observed 1852 UTC 20 February 2019
Temperature: 7.2°C (45°F)
Dewpoint: 5.6°C (42°F) [RH = 90%]
Pressure (altimeter): 29.81 inches Hg (1009.6 mb)
[Sea-level pressure: 1009.7 mb]
Winds: from the SSE (160 degrees) at 14 MPH (12 knots; 6.2 m/s)
Visibility: 2.00 miles (3.22 km)
Ceiling: 600 feet AGL
Clouds: overcast cloud deck at 600 feet AGL
Weather: -RA BR  (light rain, mist)

METAR text: KCVG 201752Z 14013KT 2SM -RA BR OVC006 07/06 A2987 RMK AO2 RAB15 PRESFR SLP117 P0001 60004 T00670056 10067 20011 58034 $
Conditions at: KCVG (COVINGTON , KY, US) observed 1752 UTC 20 February 2019
Temperature: 6.7°C (44°F)
Dewpoint: 5.6°C (42°F) [RH = 93%]
Pressure (altimeter): 29.87 inches Hg (1011.6 mb)
[Sea-level pressure: 1011.7 mb]
Winds: from the SE (140 degrees) at 15 MPH (13 knots; 6.7 m/s)
Visibility: 2.00 miles (3.22 km)
Ceiling: 600 feet AGL
Clouds: overcast cloud deck at 600 feet AGL
Weather: -RA BR  (light rain, mist)
SOME DATA ABOVE MAY BE INACCURATE!!!
"$" is an indication the sensor requires maintenance

METAR text: KCVG 201652Z 14013KT 2SM BR OVC006 06/04 A2992 RMK AO2 SFC VIS 2 1/2 RAE1556DZB1556E38 SLP133 P0000 T00610044 $
Conditions at: KCVG (COVINGTON , KY, US) observed 1652 UTC 20 February 2019
Temperature: 6.1°C (43°F)
Dewpoint: 4.4°C (40°F) [RH = 89%]
Pressure (altimeter): 29.92 inches Hg (1013.3 mb)
[Sea-level pressure: 1013.3 mb]
Winds: from the SE (140 degrees) at 15 MPH (13 knots; 6.7 m/s)
Visibility: 2.00 miles (3.22 km)
Ceiling: 600 feet AGL
Clouds: overcast cloud deck at 600 feet AGL
Weather: BR  (mist)
SOME DATA ABOVE MAY BE INACCURATE!!!
"$" is an indication the sensor requires maintenance

METAR text: KCVG 201611Z 14013KT 2SM -DZ BR OVC005 06/04 A2993 RMK AO2 RAE1556DZB1556 P0000 T00560039 $
Conditions at: KCVG (COVINGTON , KY, US) observed 1611 UTC 20 February 2019
Temperature: 5.6°C (42°F)
Dewpoint: 3.9°C (39°F) [RH = 89%]
Pressure (altimeter): 29.93 inches Hg (1013.6 mb)
Winds: from the SE (140 degrees) at 15 MPH (13 knots; 6.7 m/s)
Visibility: 2.00 miles (3.22 km)
Ceiling: 500 feet AGL
Clouds: overcast cloud deck at 500 feet AGL
Weather: -DZ BR  (light drizzle, mist)
SOME DATA ABOVE MAY BE INACCURATE!!!
"$" is an indication the sensor requires maintenance

METAR text: KCVG 201555Z 13010KT 1 3/4SM -RA BR OVC004 04/03 A2994 RMK AO2 TWR VIS 2 P0000 T00440033 $
Conditions at: KCVG (COVINGTON , KY, US) observed 1555 UTC 20 February 2019
Temperature: 4.4°C (40°F)
Dewpoint: 3.3°C (38°F) [RH = 93%]
Pressure (altimeter): 29.94 inches Hg (1014.0 mb)
Winds: from the SE (130 degrees) at 12 MPH (10 knots; 5.1 m/s)
Visibility: 1.75 miles (2.82 km)
Ceiling: 400 feet AGL
Clouds: overcast cloud deck at 400 feet AGL
Weather: -RA BR  (light rain, mist)
SOME DATA ABOVE MAY BE INACCURATE!!!
"$" is an indication the sensor requires maintenance

METAR text: KCVG 201552Z 13011KT 2SM -RA BR OVC005 04/03 A2994 RMK AO2 SLP141 P0001 T00440033 $
Conditions at: KCVG (COVINGTON , KY, US) observed 1552 UTC 20 February 2019
Temperature: 4.4°C (40°F)
Dewpoint: 3.3°C (38°F) [RH = 93%]
Pressure (altimeter): 29.94 inches Hg (1014.0 mb)
[Sea-level pressure: 1014.1 mb]
Winds: from the SE (130 degrees) at 13 MPH (11 knots; 5.7 m/s)
Visibility: 2.00 miles (3.22 km)
Ceiling: 500 feet AGL
Clouds: overcast cloud deck at 500 feet AGL
Weather: -RA BR  (light rain, mist)
SOME DATA ABOVE MAY BE INACCURATE!!!
"$" is an indication the sensor requires maintenance

METAR text: KCVG 201452Z 13007KT 2SM -RA BR OVC005 03/02 A2997 RMK AO2 RAB49 SLP154 PCPN LGT P0000 60002 T00330022 56001 $
Conditions at: KCVG (COVINGTON , KY, US) observed 1452 UTC 20 February 2019
Temperature: 3.3°C (38°F)
Dewpoint: 2.2°C (36°F) [RH = 92%]
Pressure (altimeter): 29.97 inches Hg (1015.0 mb)
[Sea-level pressure: 1015.4 mb]
Winds: from the SE (130 degrees) at 8 MPH (7 knots; 3.6 m/s)
Visibility: 2.00 miles (3.22 km)
Ceiling: 500 feet AGL
Clouds: overcast cloud deck at 500 feet AGL
Weather: -RA BR  (light rain, mist)
SOME DATA ABOVE MAY BE INACCURATE!!!
"$" is an indication the sensor requires maintenance

Forecast for: KCVG (COVINGTON , KY, US)
Text: KCVG 212338Z 2200/2306 33005KT P6SM BKN150
Forecast period: 0000 to 0600 UTC 22 February 2019
Forecast type: FROM: standard forecast or significant change
Winds: from the NNW (330 degrees) at 6 MPH (5 knots; 2.6 m/s)
Visibility: 6 or more miles 10+ km)
Ceiling: 15000 feet AGL
Clouds: broken clouds at 15000 feet AGL
Weather: no significant weather forecast for this period
Text: FM220600 04007KT P6SM BKN150
Forecast period: 0600 to 1500 UTC 22 February 2019
Forecast type: FROM: standard forecast or significant change
Winds: from the NE (40 degrees) at 8 MPH (7 knots; 3.6 m/s)
Visibility: 6 or more miles 10+ km)
Ceiling: 15000 feet AGL
Clouds: broken clouds at 15000 feet AGL
Weather: no significant weather forecast for this period
Text: FM221500 07009KT P6SM SCT080 BKN150
Forecast period: 1500 UTC 22 February 2019 to 0200 UTC 23 February 2019
Forecast type: FROM: standard forecast or significant change
Winds: from the ENE (70 degrees) at 10 MPH (9 knots; 4.6 m/s)
Visibility: 6 or more miles 10+ km)
Ceiling: 15000 feet AGL
Clouds: scattered clouds at 8000 feet AGL
broken clouds at 15000 feet AGL
Weather: no significant weather forecast for this period
Text: FM230200 09008KT P6SM BKN035 OVC150
Forecast period: 0200 to 0600 UTC 23 February 2019
Forecast type: FROM: standard forecast or significant change
Winds: from the E (90 degrees) at 9 MPH (8 knots; 4.1 m/s)
Visibility: 6 or more miles 10+ km)
Ceiling: 3500 feet AGL
Clouds: broken clouds at 3500 feet AGL
overcast cloud deck at 15000 feet AGL
Weather: no significant weather forecast for this period